DW3762 Weather Reports


Display with metric or nautical units.
time (UTC)temp
F
wind
direction
speed
MPH
gust
MPH
rain 1hr
in
rain 24hr
in
rain mn
in
humidity
%
barometer
mb
20210926044700 67 285 0.0 0.0 0.00 0.00 0.00 72 1010.1
20210926043219 68 285 0.0 1.0 0.00 0.00 0.00 71 1010.3
20210926041634 68 360 0.0 1.0 0.00 0.00 0.00 69 1010.1
20210926040104 69 22 0.0 1.0 0.00 0.00 0.00 68 1010.1
20210926033113 71 4 0.0 3.0 0.00 0.00 0.00 66 1010.0
20210926031658 71 12 0.0 3.0 0.00 0.00 0.00 63 1009.6
20210926030050 72 54 0.0 0.0 0.00 0.00 0.00 55 1009.4
20210926024643 73 54 0.0 1.0 0.00 0.00 0.00 49 1009.4
20210926023201 75 54 0.0 0.0 0.00 0.00 0.00 46 1009.4
20210926021556 76 54 0.0 0.0 0.00 0.00 0.00 45 1009.4
20210926020132 77 54 0.0 0.0 0.00 0.00 0.00 43 1009.4
20210926014631 78 35 0.0 2.0 0.00 0.00 0.00 42 1009.3
20210926013145 78 19 0.0 2.0 0.00 0.00 0.00 40 1009.3
20210926011613 79 149 0.0 2.0 0.00 0.00 0.00 39 1009.3
20210926010113 80 256 0.0 2.0 0.00 0.00 0.00 39 1009.4
20210926004639 80 108 0.0 3.0 0.00 0.00 0.00 38 1009.3
20210926003105 81 206 0.0 2.0 0.00 0.00 0.00 39 1009.5
20210926001642 81 71 0.0 4.0 0.00 0.00 0.00 37 1009.6
20210926000035 82 312 0.0 2.0 0.00 0.00 0.00 37 1009.6
20210925234545 82 206 0.0 2.0 0.00 0.00 0.00 37 1009.8
20210925233037 83 84 0.0 4.0 0.00 0.00 0.00 35 1009.8
20210925231547 83 213 0.0 3.0 0.00 0.00 0.00 35 1010.0
20210925230031 84 38 0.0 2.0 0.00 0.00 0.00 35 1010.2
20210925224542 85 122 0.0 4.0 0.00 0.00 0.00 34 1010.3
20210925223035 85 15 0.0 2.0 0.00 0.00 0.00 34 1010.4
20210925221539 85 153 1.0 3.0 0.00 0.00 0.00 32 1010.6
20210925220145 85 333 1.0 3.0 0.00 0.00 0.00 34 1010.7
20210925214521 84 19 0.0 2.0 0.00 0.00 0.00 36 1010.8
20210925213040 84 235 1.0 4.0 0.00 0.00 0.00 35 1011.1
20210925211552 84 84 1.0 3.0 0.00 0.00 0.00 37 1011.2
20210925210008 84 2 1.0 5.0 0.00 0.00 0.00 37 1011.3
20210925204508 83 292 0.0 2.0 0.00 0.00 0.00 38 1011.5
20210925203006 82 347 0.0 3.0 0.00 0.00 0.00 39 1011.7
20210925201753 82 56 0.0 4.0 0.00 0.00 0.00 38 1011.8
20210925200106 82 142 0.0 2.0 0.00 0.00 0.00 40 1011.9
20210925194603 81 123 0.0 3.0 0.00 0.00 0.00 41 1011.9
20210925193111 80 333 0.0 2.0 0.00 0.00 0.00 42 1012.0
20210925191613 79 207 0.0 3.0 0.00 0.00 0.00 43 1012.1
20210925190058 78 306 0.0 2.0 0.00 0.00 0.00 45 1012.2
20210925184558 78 246 0.0 3.0 0.00 0.00 0.00 46 1012.3
20210925183156 77 287 0.0 2.0 0.00 0.00 0.00 46 1012.2
20210925181549 76 291 0.0 6.0 0.00 0.00 0.00 48 1012.4
20210925180115 75 356 0.0 2.0 0.00 0.00 0.00 51 1012.4
20210925174559 74 304 0.0 2.0 0.00 0.00 0.00 53 1012.4
20210925173103 72 348 0.0 2.0 0.00 0.00 0.00 54 1012.3
20210925171553 70 187 1.0 3.0 0.00 0.00 0.00 58 1012.4
20210925170020 68 106 0.0 1.0 0.00 0.00 0.00 62 1012.5
20210925164534 66 190 0.0 2.0 0.00 0.00 0.00 65 1012.6
20210925163010 64 131 0.0 1.0 0.00 0.00 0.00 70 1012.6
20210925161506 62 12 0.0 2.0 0.00 0.00 0.00 73 1012.7
20210925160005 60 137 0.0 1.0 0.00 0.00 0.00 77 1012.7
20210925154509 59 137 0.0 1.0 0.00 0.00 0.00 82 1012.5
20210925153004 56 137 0.0 0.0 0.00 0.00 0.00 85 1012.4
20210925151636 54 242 0.0 0.0 0.00 0.00 0.00 87 1012.4
20210925150101 53 242 0.0 0.0 0.00 0.00 0.00 87 1012.4
20210925144755 53 242 0.0 0.0 0.00 0.00 0.00 87 1012.5
20210925143156 52 242 0.0 0.0 0.00 0.00 0.00 86 1012.3
20210925141707 52 242 0.0 0.0 0.00 0.00 0.00 86 1012.1
20210925140058 53 242 0.0 0.0 0.00 0.00 0.00 85 1012.2
20210925134656 53 242 0.0 0.0 0.00 0.00 0.00 85 1012.1
20210925133317 53 242 0.0 0.0 0.00 0.00 0.00 84 1011.9
20210925131627 53 242 0.0 0.0 0.00 0.00 0.00 84 1011.7
20210925130052 54 242 0.0 0.0 0.00 0.00 0.00 83 1011.6
20210925124551 54 242 0.0 0.0 0.00 0.00 0.00 83 1011.4
20210925123133 54 242 0.0 0.0 0.00 0.00 0.00 83 1011.4
20210925121614 54 242 0.0 0.0 0.00 0.00 0.00 82 1011.5
20210925120245 54 242 0.0 0.0 0.00 0.00 0.00 82 1011.4
20210925114544 54 242 0.0 0.0 0.00 0.00 0.00 81 1011.3
20210925113059 55 242 0.0 0.0 0.00 0.00 0.00 80 1011.2
20210925111614 55 242 0.0 0.0 0.00 0.00 0.00 80 1011.2
20210925110056 55 242 0.0 0.0 0.00 0.00 0.00 79 1011.1
20210925104611 55 242 0.0 0.0 0.00 0.00 0.00 78 1011.1
20210925103042 56 242 0.0 0.0 0.00 0.00 0.00 78 1011.2
20210925101536 56 242 0.0 0.0 0.00 0.00 0.00 77 1011.0
20210925100102 56 242 0.0 0.0 0.00 0.00 0.00 76 1011.0
20210925094523 57 242 0.0 0.0 0.00 0.00 0.00 75 1011.0
20210925093057 57 242 0.0 0.0 0.00 0.00 0.00 75 1011.0
20210925091608 57 242 0.0 0.0 0.00 0.00 0.00 74 1011.1
20210925090027 58 242 0.0 0.0 0.00 0.00 0.00 72 1011.1
20210925084529 58 242 0.0 0.0 0.00 0.00 0.00 71 1011.0
20210925083024 59 242 0.0 0.0 0.00 0.00 0.00 70 1010.8
20210925081512 59 242 0.0 0.0 0.00 0.00 0.00 69 1010.9
20210925080043 60 242 0.0 0.0 0.00 0.00 0.00 67 1010.9
20210925074519 60 242 0.0 0.0 0.00 0.00 0.00 65 1010.8
20210925073010 61 242 0.0 0.0 0.00 0.00 0.00 63 1010.8
20210925071503 62 242 0.0 0.0 0.00 0.00 0.00 62 1010.7
20210925070214 62 242 0.0 0.0 0.00 0.00 0.00 61 1010.6
20210925064728 63 242 0.0 0.0 0.00 0.00 0.00 59 1010.5
20210925063214 64 242 0.0 0.0 0.00 0.00 0.00 57 1010.4
20210925061648 65 242 0.0 0.0 0.00 0.00 0.00 54 1010.4
20210925060122 66 242 0.0 0.0 0.00 0.00 0.00 51 1010.3
20210925054604 67 242 0.0 0.0 0.00 0.00 0.00 50 1010.3
20210925053057 67 242 0.0 0.0 0.00 0.00 0.00 49 1010.3
20210925051552 68 242 0.0 0.0 0.00 0.00 0.00 47 1010.1
20210925050124 68 242 0.0 0.0 0.00 0.00 0.00 46 1010.2